createdAt,value
2019-02-19T00:03:39.201Z,2.00
2019-02-19T00:08:43.377Z,2.20
2019-02-19T00:13:47.673Z,0.80
2019-02-19T00:18:51.930Z,2.00
2019-02-19T00:23:56.035Z,1.50
2019-02-19T00:29:00.234Z,1.00
2019-02-19T00:34:04.482Z,2.00
2019-02-19T00:39:08.644Z,2.00
2019-02-19T00:44:12.932Z,1.00
2019-02-19T00:49:17.250Z,2.00
2019-02-19T00:54:21.495Z,1.20
2019-02-19T00:59:25.729Z,2.00
2019-02-19T01:04:29.919Z,2.00
2019-02-19T01:09:34.058Z,2.00
2019-02-19T01:14:38.236Z,1.40
2019-02-19T01:19:42.393Z,1.00
2019-02-19T01:24:46.536Z,1.00
2019-02-19T01:29:50.655Z,2.00
2019-02-19T01:34:54.776Z,1.50
2019-02-19T01:39:58.930Z,1.40
2019-02-19T01:45:03.256Z,1.00
2019-02-19T01:50:08.025Z,1.00
2019-02-19T01:55:12.055Z,1.00
2019-02-19T02:00:16.283Z,1.20
2019-02-19T02:05:20.340Z,1.20
2019-02-19T02:10:24.459Z,2.00
2019-02-19T02:15:28.491Z,1.25
2019-02-19T02:20:32.964Z,1.00
2019-02-19T02:25:37.019Z,1.00
2019-02-19T02:30:41.135Z,1.00
2019-02-19T02:35:45.167Z,1.00
2019-02-19T02:40:49.196Z,1.40
2019-02-19T02:45:53.930Z,2.00
2019-02-19T02:50:58.160Z,0.75
2019-02-19T02:56:02.267Z,1.00
2019-02-19T03:01:06.394Z,1.00
2019-02-19T03:06:29.406Z,0.50
2019-02-19T03:11:33.549Z,1.00
2019-02-19T03:16:37.575Z,1.00
2019-02-19T03:21:41.605Z,1.00
2019-02-19T03:26:45.735Z,2.00
2019-02-19T03:31:49.778Z,0.67
2019-02-19T03:36:53.827Z,0.00
2019-02-19T03:41:57.937Z,1.00
2019-02-19T03:47:01.963Z,1.00
2019-02-19T03:52:06.078Z,0.60
2019-02-19T03:57:10.575Z,1.60
2019-02-19T04:02:14.816Z,1.00
2019-02-19T04:07:18.858Z,1.00
2019-02-19T04:12:31.673Z,1.40
2019-02-19T04:17:35.709Z,1.00
2019-02-19T04:22:39.764Z,0.50
2019-02-19T04:27:43.802Z,1.25
2019-02-19T04:32:47.903Z,1.00
2019-02-19T04:37:51.982Z,0.75
2019-02-19T04:42:56.115Z,1.00
2019-02-19T04:48:00.282Z,1.25
2019-02-19T04:53:04.475Z,1.40
2019-02-19T04:58:08.628Z,0.60
2019-02-19T05:03:12.772Z,1.75
2019-02-19T05:08:16.922Z,1.00
2019-02-19T05:13:21.114Z,1.67
2019-02-19T05:18:25.266Z,1.00
2019-02-19T05:23:29.352Z,0.80
2019-02-19T05:28:33.613Z,2.00
2019-02-19T05:33:37.683Z,1.00
2019-02-19T05:38:41.828Z,1.20
2019-02-19T05:43:45.888Z,1.00
2019-02-19T05:48:50.014Z,1.50
2019-02-19T05:53:54.103Z,1.00
2019-02-19T05:58:58.153Z,1.00
2019-02-19T06:04:02.234Z,2.25
2019-02-19T06:09:06.668Z,1.00
2019-02-19T06:14:10.764Z,2.00
2019-02-19T06:19:14.860Z,2.00
2019-02-19T06:24:18.882Z,2.00
2019-02-19T06:29:22.924Z,1.75
2019-02-19T06:34:27.045Z,2.00
2019-02-19T06:39:31.073Z,1.00
2019-02-19T06:44:35.101Z,2.00
2019-02-19T06:49:39.166Z,1.75
2019-02-19T06:54:43.189Z,1.20
2019-02-19T06:59:47.327Z,2.00
2019-02-19T07:04:54.428Z,1.00
2019-02-19T07:09:58.459Z,2.80
2019-02-19T07:15:02.506Z,1.00
2019-02-19T07:20:06.718Z,1.25
2019-02-19T07:25:10.855Z,0.00
2019-02-19T07:30:14.966Z,2.00
2019-02-19T07:35:19.265Z,1.80
2019-02-19T07:40:23.286Z,2.00
2019-02-19T07:45:27.418Z,1.40
2019-02-19T07:50:31.482Z,1.75
2019-02-19T07:55:35.533Z,15.25
2019-02-19T08:00:39.657Z,14.25
2019-02-19T08:05:43.716Z,14.00
2019-02-19T08:10:47.775Z,11.20
2019-02-19T08:15:51.856Z,11.00
2019-02-19T08:20:55.940Z,9.60
2019-02-19T08:26:00.006Z,9.40
2019-02-19T08:31:04.105Z,9.20
2019-02-19T08:36:08.241Z,9.20
2019-02-19T08:41:12.308Z,7.20
2019-02-19T08:46:16.392Z,10.20
2019-02-19T08:51:20.454Z,7.00
2019-02-19T08:56:24.496Z,8.80
2019-02-19T09:01:28.547Z,6.75
2019-02-19T09:06:32.613Z,9.25
2019-02-19T09:11:36.675Z,7.00
2019-02-19T09:16:40.867Z,7.00
2019-02-19T09:21:44.907Z,6.00
2019-02-19T09:26:48.974Z,8.50
2019-02-19T09:31:53.123Z,6.25
2019-02-19T09:36:57.206Z,6.20
2019-02-19T09:42:01.333Z,7.00
2019-02-19T09:47:05.544Z,7.00
2019-02-19T09:52:09.765Z,8.00
2019-02-19T09:57:13.819Z,7.00
2019-02-19T10:02:17.859Z,7.00
2019-02-19T10:07:21.984Z,6.00
2019-02-19T10:12:26.112Z,7.00
2019-02-19T10:17:30.187Z,7.00
2019-02-19T10:22:34.307Z,6.00
2019-02-19T10:27:38.365Z,6.80
2019-02-19T10:32:42.407Z,6.00
2019-02-19T10:37:46.502Z,6.00
2019-02-19T10:42:50.547Z,6.50
2019-02-19T10:47:54.975Z,6.75
2019-02-19T10:52:59.035Z,6.00
2019-02-19T10:58:03.095Z,6.50
2019-02-19T11:03:07.215Z,7.00
2019-02-19T11:08:11.319Z,7.00
2019-02-19T11:13:15.392Z,6.00
2019-02-19T11:18:27.878Z,8.40
2019-02-19T11:23:25.263Z,7.00
2019-02-19T11:28:29.633Z,7.50
2019-02-19T11:33:33.891Z,9.00
2019-02-19T11:38:37.954Z,7.00
2019-02-19T11:43:42.101Z,8.75
2019-02-19T11:48:46.160Z,8.00
2019-02-19T11:53:50.287Z,8.25
2019-02-19T11:58:54.322Z,8.00
2019-02-19T12:03:58.360Z,8.80
2019-02-19T12:09:02.397Z,8.75
2019-02-19T12:14:06.601Z,8.00
2019-02-19T12:19:10.736Z,7.00
2019-02-19T12:24:15.008Z,12.25
2019-02-19T12:29:19.077Z,12.20
2019-02-19T12:34:23.119Z,10.20
2019-02-19T12:39:27.233Z,8.75
2019-02-19T12:44:31.356Z,8.00
2019-02-19T12:49:35.411Z,8.25
2019-02-19T12:54:39.490Z,8.50
2019-02-19T12:59:43.584Z,7.60
2019-02-19T13:04:47.716Z,7.80
2019-02-19T13:09:51.779Z,6.50
2019-02-19T13:14:55.826Z,6.00
2019-02-19T13:19:59.953Z,5.25
2019-02-19T13:25:04.265Z,6.00
2019-02-19T13:30:11.361Z,6.00
2019-02-19T13:35:15.511Z,6.00
2019-02-19T13:40:19.814Z,5.75
2019-02-19T13:45:23.876Z,4.80
2019-02-19T13:50:28.036Z,5.80
2019-02-19T13:55:35.053Z,6.20
2019-02-19T14:00:41.514Z,5.40
2019-02-19T14:05:45.794Z,4.75
2019-02-19T14:10:49.918Z,5.00
2019-02-19T14:16:03.810Z,5.60
2019-02-19T14:21:22.879Z,4.00
2019-02-19T14:27:01.112Z,4.25
2019-02-19T14:32:20.067Z,4.00
2019-02-19T14:37:41.820Z,4.00
2019-02-19T14:42:57.398Z,4.00
2019-02-19T14:48:19.444Z,4.00
2019-02-19T14:53:41.363Z,5.00
2019-02-19T14:59:12.758Z,5.00
2019-02-19T15:04:35.798Z,5.00
2019-02-19T15:10:04.980Z,3.00
2019-02-19T15:15:21.994Z,4.40
2019-02-19T15:20:48.217Z,4.60
2019-02-19T15:26:20.314Z,5.00
2019-02-19T15:31:29.972Z,4.00
2019-02-19T15:36:53.035Z,4.00
2019-02-19T15:42:31.387Z,3.75
2019-02-19T15:47:57.551Z,3.50
2019-02-19T15:53:08.452Z,3.00
2019-02-19T15:58:37.830Z,4.20
2019-02-19T16:04:03.903Z,3.00
2019-02-19T16:09:19.423Z,4.40
2019-02-19T16:15:00.722Z,3.00
2019-02-19T16:20:23.782Z,3.20
2019-02-19T16:25:52.987Z,3.25
2019-02-19T16:31:18.793Z,4.00
2019-02-19T16:36:43.638Z,4.75
2019-02-19T16:42:00.970Z,4.00
2019-02-19T16:47:30.286Z,3.00
2019-02-19T16:52:47.769Z,2.80
2019-02-19T16:57:56.609Z,4.00
2019-02-19T17:03:16.905Z,3.00
2019-02-19T17:08:32.323Z,4.00
2019-02-19T17:13:58.734Z,2.00
2019-02-19T17:19:24.696Z,2.00
2019-02-19T17:24:53.553Z,2.40
2019-02-19T17:30:15.209Z,3.80
2019-02-19T17:35:37.097Z,2.80
2019-02-19T17:40:59.075Z,3.25
2019-02-19T17:46:17.907Z,3.80
2019-02-19T17:51:38.004Z,2.75
2019-02-19T17:56:49.455Z,3.40
2019-02-19T18:02:00.915Z,2.00
2019-02-19T18:07:23.571Z,3.00
2019-02-19T18:12:39.411Z,3.00
2019-02-19T18:18:05.169Z,2.40
2019-02-19T18:23:09.195Z,3.00
2019-02-19T18:28:13.227Z,4.00
2019-02-19T18:33:18.655Z,2.40
2019-02-19T18:38:23.015Z,3.00
2019-02-19T18:43:27.065Z,2.20
2019-02-19T18:48:31.146Z,3.00
2019-02-19T18:53:35.206Z,3.80
2019-02-19T18:58:39.241Z,3.00
2019-02-19T19:03:43.410Z,2.80
2019-02-19T19:08:47.568Z,3.80
2019-02-19T19:13:51.646Z,3.50
2019-02-19T19:18:55.707Z,3.00
2019-02-19T19:23:59.781Z,3.60
2019-02-19T19:29:04.023Z,3.00
2019-02-19T19:34:08.120Z,3.25
2019-02-19T19:39:12.163Z,2.80
2019-02-19T19:44:16.309Z,3.00
2019-02-19T19:49:20.358Z,2.80
2019-02-19T19:54:24.430Z,2.00
2019-02-19T19:59:28.538Z,2.80
2019-02-19T20:04:32.652Z,4.75
2019-02-19T20:09:36.748Z,2.20
2019-02-19T20:14:40.808Z,3.00
2019-02-19T20:19:44.852Z,3.00
2019-02-19T20:24:49.037Z,2.75
2019-02-19T20:29:53.195Z,2.00
2019-02-19T20:34:57.278Z,3.80
2019-02-19T20:40:01.415Z,3.00
2019-02-19T20:45:05.970Z,3.00
2019-02-19T20:50:10.408Z,3.60
2019-02-19T20:55:14.822Z,2.80
2019-02-19T21:00:18.953Z,2.00
2019-02-19T21:05:23.082Z,2.40
2019-02-19T21:10:27.230Z,2.80
2019-02-19T21:15:31.283Z,2.60
2019-02-19T21:20:35.430Z,2.60
2019-02-19T21:25:39.514Z,2.50
2019-02-19T21:30:45.290Z,3.75
2019-02-19T21:35:49.352Z,3.00
2019-02-19T21:40:53.556Z,2.50
2019-02-19T21:45:57.620Z,3.00
2019-02-19T21:51:01.686Z,3.25
2019-02-19T21:56:05.940Z,2.00
2019-02-19T22:01:10.073Z,2.00
2019-02-19T22:06:14.289Z,2.20
2019-02-19T22:11:18.528Z,2.00
2019-02-19T22:16:22.579Z,2.00
2019-02-19T22:21:35.242Z,2.50
2019-02-19T22:26:39.322Z,2.80
2019-02-19T22:31:43.475Z,3.00
2019-02-19T22:36:47.630Z,2.00
2019-02-19T22:41:51.714Z,2.00
2019-02-19T22:46:55.778Z,1.75
2019-02-19T22:51:59.929Z,2.00
2019-02-19T22:57:04.100Z,2.00
2019-02-19T23:02:15.189Z,2.00
2019-02-19T23:07:19.346Z,3.00
2019-02-19T23:12:23.548Z,2.50
2019-02-19T23:17:27.896Z,2.25
2019-02-19T23:22:32.138Z,2.60
2019-02-19T23:27:36.189Z,2.00
2019-02-19T23:32:40.258Z,1.80
2019-02-19T23:37:44.514Z,2.60
2019-02-19T23:42:48.648Z,2.60
2019-02-19T23:47:52.750Z,1.80
2019-02-19T23:52:56.811Z,2.25
2019-02-19T23:58:01.377Z,1.75
